createdAt,value
2023-01-29T00:01:23.900Z,4.90
2023-01-29T00:03:53.391Z,7.15
2023-01-29T00:06:23.625Z,5.10
2023-01-29T00:08:52.883Z,4.60
2023-01-29T00:11:21.835Z,4.72
2023-01-29T00:13:51.145Z,8.93
2023-01-29T00:16:20.057Z,7.57
2023-01-29T00:18:50.867Z,5.80
2023-01-29T00:21:22.386Z,6.65
2023-01-29T00:23:52.600Z,7.82
2023-01-29T00:26:21.591Z,8.32
2023-01-29T00:28:51.252Z,6.13
2023-01-29T00:31:23.527Z,6.15
2023-01-29T00:33:55.008Z,8.93
2023-01-29T00:36:24.937Z,7.40
2023-01-29T00:38:58.812Z,6.88
2023-01-29T00:41:47.665Z,10.00
2023-01-29T00:44:35.740Z,6.93
2023-01-29T00:47:25.824Z,6.20
2023-01-29T00:49:56.498Z,6.93
2023-01-29T00:52:25.718Z,6.35
2023-01-29T00:54:56.249Z,8.17
2023-01-29T00:59:56.447Z,6.72
2023-01-29T01:02:44.056Z,6.55
2023-01-29T01:05:18.896Z,6.65
2023-01-29T01:07:49.081Z,10.60
2023-01-29T01:12:52.426Z,5.20
2023-01-29T01:15:22.379Z,5.25
2023-01-29T01:17:54.856Z,9.32
2023-01-29T01:20:27.370Z,7.00
2023-01-29T01:22:56.695Z,6.28
2023-01-29T01:25:27.313Z,6.47
2023-01-29T01:30:29.675Z,8.52
2023-01-29T01:32:58.983Z,6.78
2023-01-29T01:35:29.603Z,5.78
2023-01-29T01:40:28.450Z,5.63
2023-01-29T01:42:59.274Z,6.63
2023-01-29T01:45:31.360Z,6.40
2023-01-29T01:48:05.498Z,5.90
2023-01-29T01:50:40.237Z,5.70
2023-01-29T01:53:12.582Z,7.00
2023-01-29T01:55:45.214Z,6.18
2023-01-29T01:58:19.490Z,6.45
2023-01-29T02:00:48.866Z,6.45
2023-01-29T02:03:36.029Z,7.32
2023-01-29T02:06:25.698Z,5.47
2023-01-29T02:09:16.489Z,4.90
2023-01-29T02:11:45.835Z,7.32
2023-01-29T02:14:14.813Z,7.15
2023-01-29T02:16:44.051Z,7.18
2023-01-29T02:19:18.201Z,4.90
2023-01-29T02:22:13.319Z,5.18
2023-01-29T02:25:14.320Z,6.60
2023-01-29T02:28:17.986Z,5.40
2023-01-29T02:30:54.379Z,6.57
2023-01-29T02:33:36.728Z,6.88
2023-01-29T02:36:14.673Z,5.40
2023-01-29T02:38:51.533Z,6.05
2023-01-29T02:41:30.070Z,6.07
2023-01-29T02:44:07.909Z,5.07
2023-01-29T02:46:47.307Z,5.85
2023-01-29T02:49:23.582Z,8.05
2023-01-29T02:52:00.403Z,5.82
2023-01-29T02:54:39.312Z,6.97
2023-01-29T02:57:16.259Z,6.70
2023-01-29T02:59:51.134Z,6.15
2023-01-29T03:02:28.989Z,4.85
2023-01-29T03:05:04.216Z,7.43
2023-01-29T03:07:45.892Z,6.85
2023-01-29T03:10:25.810Z,5.00
2023-01-29T03:12:59.758Z,4.65
2023-01-29T03:15:38.857Z,6.15
2023-01-29T03:18:45.913Z,5.45
2023-01-29T03:21:37.925Z,5.60
2023-01-29T03:24:27.683Z,4.97
2023-01-29T03:27:20.827Z,5.00
2023-01-29T03:30:11.819Z,5.18
2023-01-29T03:33:08.963Z,8.18
2023-01-29T03:35:47.585Z,5.90
2023-01-29T03:38:17.374Z,6.28
2023-01-29T03:40:52.044Z,7.37
2023-01-29T03:43:33.068Z,6.80
2023-01-29T03:46:08.452Z,8.43
2023-01-29T03:48:40.722Z,7.63
2023-01-29T03:51:23.362Z,9.48
2023-01-29T03:54:00.107Z,7.35
2023-01-29T03:56:40.304Z,6.70
2023-01-29T04:02:11.160Z,9.10
2023-01-29T04:04:44.727Z,8.30
2023-01-29T04:07:23.792Z,8.98
2023-01-29T04:10:07.041Z,8.82
2023-01-29T04:12:43.281Z,11.15
2023-01-29T04:15:16.499Z,9.77
2023-01-29T04:17:51.686Z,8.52
2023-01-29T04:20:27.967Z,9.98
2023-01-29T04:22:58.486Z,9.00
2023-01-29T04:25:33.486Z,10.35
2023-01-29T04:28:12.503Z,9.77
2023-01-29T04:30:49.357Z,10.45
2023-01-29T04:33:30.310Z,11.68
2023-01-29T04:36:23.419Z,10.68
2023-01-29T04:39:03.714Z,10.48
2023-01-29T04:41:37.273Z,10.43
2023-01-29T04:44:12.495Z,9.13
2023-01-29T04:46:50.037Z,9.55
2023-01-29T04:49:30.556Z,11.25
2023-01-29T04:52:06.554Z,10.75
2023-01-29T04:54:52.484Z,6.78
2023-01-29T04:57:27.890Z,7.90
2023-01-29T05:00:03.892Z,8.07
2023-01-29T05:02:36.586Z,8.32
2023-01-29T05:05:06.967Z,8.95
2023-01-29T05:07:38.814Z,9.40
2023-01-29T05:10:12.501Z,7.82
2023-01-29T05:12:44.941Z,8.15
2023-01-29T05:15:19.155Z,9.88
2023-01-29T05:17:48.524Z,7.68
2023-01-29T05:20:18.186Z,9.02
2023-01-29T05:22:49.296Z,7.63
2023-01-29T05:25:26.721Z,7.07
2023-01-29T05:28:04.176Z,8.45
2023-01-29T05:30:35.243Z,6.47
2023-01-29T05:33:05.583Z,7.18
2023-01-29T05:35:34.845Z,8.30
2023-01-29T05:38:04.250Z,6.28
2023-01-29T05:40:34.822Z,6.75
2023-01-29T05:43:04.456Z,5.80
2023-01-29T05:45:33.650Z,8.05
2023-01-29T05:48:02.908Z,6.33
2023-01-29T05:50:31.873Z,6.97
2023-01-29T05:53:02.197Z,5.68
2023-01-29T05:55:31.205Z,6.45
2023-01-29T05:58:02.297Z,6.03
2023-01-29T06:00:32.221Z,5.45
2023-01-29T06:03:01.556Z,6.57
2023-01-29T06:05:30.500Z,5.63
2023-01-29T06:07:59.747Z,5.13
2023-01-29T06:10:28.699Z,4.50
2023-01-29T06:12:57.868Z,6.28
2023-01-29T06:15:28.593Z,5.30
2023-01-29T06:17:58.766Z,4.90
2023-01-29T06:20:27.708Z,6.50
2023-01-29T06:22:56.936Z,6.38
2023-01-29T06:25:25.829Z,5.78
2023-01-29T06:27:56.231Z,7.35
2023-01-29T06:30:28.401Z,5.30
2023-01-29T06:32:58.803Z,5.40
2023-01-29T06:35:27.903Z,6.85
2023-01-29T06:37:58.254Z,7.18
2023-01-29T06:40:27.192Z,6.28
2023-01-29T06:42:56.457Z,5.82
2023-01-29T06:45:25.436Z,7.22
2023-01-29T06:47:57.485Z,8.32
2023-01-29T06:50:27.402Z,6.75
2023-01-29T06:52:56.588Z,7.68
2023-01-29T06:55:25.494Z,6.85
2023-01-29T06:57:54.908Z,8.10
2023-01-29T07:00:23.970Z,9.25
2023-01-29T07:02:53.227Z,8.32
2023-01-29T07:05:23.551Z,10.43
2023-01-29T07:07:52.953Z,5.93
2023-01-29T07:10:22.328Z,8.30
2023-01-29T07:12:51.589Z,8.15
2023-01-29T07:15:21.388Z,9.68
2023-01-29T07:18:01.128Z,7.57
2023-01-29T07:20:32.154Z,9.60
2023-01-29T07:23:01.469Z,9.07
2023-01-29T07:25:31.027Z,9.85
2023-01-29T07:28:02.186Z,7.90
2023-01-29T07:30:31.166Z,8.63
2023-01-29T07:33:07.079Z,7.95
2023-01-29T07:35:40.412Z,7.95
2023-01-29T07:38:10.084Z,7.15
2023-01-29T07:40:39.030Z,7.90
2023-01-29T07:43:09.252Z,6.53
2023-01-29T07:45:40.227Z,6.80
2023-01-29T07:48:12.497Z,7.65
2023-01-29T07:50:44.087Z,7.15
2023-01-29T07:53:16.012Z,7.15
2023-01-29T07:55:46.240Z,8.52
2023-01-29T07:58:15.789Z,6.85
2023-01-29T08:00:44.808Z,6.25
2023-01-29T08:03:16.660Z,5.80
2023-01-29T08:05:47.378Z,6.63
2023-01-29T08:08:16.738Z,5.60
2023-01-29T08:10:45.601Z,11.10
2023-01-29T08:13:14.888Z,8.50
2023-01-29T08:15:46.139Z,6.45
2023-01-29T08:18:15.644Z,7.00
2023-01-29T08:20:46.008Z,5.55
2023-01-29T08:23:17.003Z,6.25
2023-01-29T08:25:46.100Z,6.13
2023-01-29T08:28:15.326Z,6.53
2023-01-29T08:30:44.932Z,5.05
2023-01-29T08:33:14.172Z,9.30
2023-01-29T08:35:43.102Z,10.50
2023-01-29T08:38:13.664Z,9.43
2023-01-29T08:43:14.446Z,9.35
2023-01-29T08:45:44.927Z,7.65
2023-01-29T08:48:14.346Z,41.33
2023-01-29T08:50:43.228Z,8.75
2023-01-29T08:53:13.914Z,6.28
2023-01-29T08:58:13.185Z,6.30
2023-01-29T09:00:42.197Z,10.05
2023-01-29T09:03:11.425Z,8.80
2023-01-29T09:05:41.612Z,6.40
2023-01-29T09:08:11.506Z,4.55
2023-01-29T09:10:42.068Z,9.65
2023-01-29T09:13:11.404Z,5.28
2023-01-29T09:15:40.324Z,5.97
2023-01-29T09:18:09.709Z,5.45
2023-01-29T09:20:38.980Z,5.93
2023-01-29T09:23:08.550Z,4.43
2023-01-29T09:25:37.942Z,5.97
2023-01-29T09:28:08.913Z,4.10
2023-01-29T09:30:38.552Z,8.27
2023-01-29T09:33:08.434Z,4.43
2023-01-29T09:35:37.543Z,7.35
2023-01-29T09:38:06.724Z,5.65
2023-01-29T09:40:42.507Z,5.13
2023-01-29T09:43:18.264Z,3.72
2023-01-29T09:45:55.206Z,5.38
2023-01-29T09:48:29.604Z,5.25
2023-01-29T09:51:02.861Z,7.18
2023-01-29T09:53:38.867Z,7.18
2023-01-29T09:56:14.031Z,7.05
2023-01-29T09:58:46.093Z,7.82
2023-01-29T10:01:20.484Z,6.55
2023-01-29T10:04:16.787Z,7.53
2023-01-29T10:07:00.370Z,4.53
2023-01-29T10:09:56.859Z,3.95
2023-01-29T10:12:45.109Z,4.07
2023-01-29T10:15:30.614Z,3.47
2023-01-29T10:18:18.296Z,4.28
2023-01-29T10:21:00.129Z,5.90
2023-01-29T10:23:34.599Z,3.30
2023-01-29T10:26:04.366Z,4.93
2023-01-29T10:28:38.169Z,8.00
2023-01-29T10:31:13.722Z,4.18
2023-01-29T10:34:01.516Z,4.60
2023-01-29T10:36:37.352Z,4.55
2023-01-29T10:39:06.372Z,3.60
2023-01-29T10:41:55.559Z,5.00
2023-01-29T10:44:37.854Z,3.17
2023-01-29T10:47:42.640Z,3.15
2023-01-29T10:50:42.184Z,5.97
2023-01-29T10:53:37.169Z,5.32
2023-01-29T10:56:23.122Z,4.95
2023-01-29T10:58:57.687Z,4.63
2023-01-29T11:01:28.068Z,5.15
2023-01-29T11:04:01.999Z,4.23
2023-01-29T11:06:33.289Z,3.45
2023-01-29T11:09:09.773Z,4.03
2023-01-29T11:11:45.516Z,4.45
2023-01-29T11:14:18.825Z,3.80
2023-01-29T11:16:50.002Z,5.43
2023-01-29T11:19:37.003Z,4.65
2023-01-29T11:22:09.420Z,5.43
2023-01-29T11:24:38.965Z,4.57
2023-01-29T11:27:17.429Z,4.80
2023-01-29T11:29:48.544Z,4.45
2023-01-29T11:32:28.018Z,5.18
2023-01-29T11:35:04.417Z,3.72
2023-01-29T11:37:36.733Z,3.95
2023-01-29T11:40:34.334Z,5.38
2023-01-29T11:43:19.088Z,3.85
2023-01-29T11:45:50.318Z,4.55
2023-01-29T11:48:22.956Z,4.93
2023-01-29T11:50:56.597Z,4.97
2023-01-29T11:53:38.664Z,4.43
2023-01-29T11:56:21.269Z,4.88
2023-01-29T11:58:52.800Z,4.50
2023-01-29T12:01:34.052Z,5.28
2023-01-29T12:04:04.639Z,4.75
2023-01-29T12:06:38.849Z,4.22
2023-01-29T12:09:16.842Z,6.43
2023-01-29T12:11:46.488Z,5.30
2023-01-29T12:14:30.000Z,5.55
2023-01-29T12:17:04.449Z,8.18
2023-01-29T12:19:40.847Z,5.70
2023-01-29T12:22:18.563Z,7.22
2023-01-29T12:24:54.015Z,7.05
2023-01-29T12:27:28.806Z,6.57
2023-01-29T12:30:05.023Z,6.00
2023-01-29T12:32:42.145Z,6.95
2023-01-29T12:35:18.480Z,4.78
2023-01-29T12:37:58.468Z,5.93
2023-01-29T12:40:32.282Z,6.78
2023-01-29T12:43:08.089Z,5.43
2023-01-29T12:45:38.788Z,5.22
2023-01-29T12:48:12.828Z,6.03
2023-01-29T12:50:42.175Z,6.38
2023-01-29T12:53:26.636Z,4.30
2023-01-29T12:56:00.787Z,4.45
2023-01-29T12:58:34.864Z,4.88
2023-01-29T13:01:10.871Z,5.72
2023-01-29T13:03:52.104Z,4.80
2023-01-29T13:06:27.372Z,5.20
2023-01-29T13:09:02.683Z,4.82
2023-01-29T13:11:39.273Z,4.28
2023-01-29T13:14:15.218Z,4.82
2023-01-29T13:16:49.414Z,5.47
2023-01-29T13:19:27.438Z,6.00
2023-01-29T13:21:58.668Z,5.80
2023-01-29T13:24:37.549Z,7.25
2023-01-29T13:27:07.122Z,5.63
2023-01-29T13:29:37.666Z,6.25
2023-01-29T13:32:09.931Z,6.15
2023-01-29T13:34:46.720Z,6.25
2023-01-29T13:37:28.246Z,5.45
2023-01-29T13:40:00.727Z,4.47
2023-01-29T13:42:41.478Z,5.47
2023-01-29T13:45:21.838Z,4.93
2023-01-29T13:47:53.117Z,5.63
2023-01-29T13:50:33.326Z,7.45
2023-01-29T13:53:05.351Z,7.70
2023-01-29T13:55:39.066Z,7.25
2023-01-29T13:58:10.013Z,5.80
2023-01-29T14:01:01.221Z,6.97
2023-01-29T14:04:03.886Z,6.72
2023-01-29T14:06:51.966Z,5.22
2023-01-29T14:10:02.524Z,6.55
2023-01-29T14:12:53.114Z,5.57
2023-01-29T14:15:32.218Z,7.55
2023-01-29T14:18:28.472Z,5.03
2023-01-29T14:21:04.935Z,6.47
2023-01-29T14:23:46.169Z,6.40
2023-01-29T14:26:24.412Z,6.18
2023-01-29T14:29:02.739Z,5.95
2023-01-29T14:31:44.428Z,5.50
2023-01-29T14:34:23.743Z,5.32
2023-01-29T14:36:56.365Z,6.88
2023-01-29T14:39:37.321Z,7.03
2023-01-29T14:42:24.033Z,5.25
2023-01-29T14:45:13.027Z,6.60
2023-01-29T14:48:05.489Z,7.25
2023-01-29T14:51:00.744Z,6.38
2023-01-29T14:53:47.599Z,5.25
2023-01-29T14:56:24.313Z,5.80
2023-01-29T14:58:59.215Z,7.80
2023-01-29T15:01:38.958Z,6.35
2023-01-29T15:04:19.409Z,5.78
2023-01-29T15:06:54.611Z,7.80
2023-01-29T15:09:37.330Z,8.75
2023-01-29T15:12:18.835Z,7.55
2023-01-29T15:14:59.783Z,6.50
2023-01-29T15:17:38.772Z,9.18
2023-01-29T15:20:33.802Z,8.63
2023-01-29T15:23:04.275Z,7.82
2023-01-29T15:25:37.609Z,5.97
2023-01-29T15:28:11.637Z,6.43
2023-01-29T15:30:43.239Z,6.57
2023-01-29T15:33:16.027Z,6.18
2023-01-29T15:35:45.381Z,6.00
2023-01-29T15:38:19.208Z,7.40
2023-01-29T15:40:56.651Z,9.50
2023-01-29T15:43:28.302Z,5.90
2023-01-29T15:46:26.858Z,7.97
2023-01-29T15:49:01.841Z,5.50
2023-01-29T15:51:31.221Z,5.72
2023-01-29T15:54:02.812Z,5.65
2023-01-29T15:56:36.070Z,6.22
2023-01-29T15:59:10.146Z,5.18
2023-01-29T16:01:39.235Z,5.68
2023-01-29T16:04:16.232Z,5.00
2023-01-29T16:06:46.201Z,6.85
2023-01-29T16:09:21.465Z,5.55
2023-01-29T16:11:51.455Z,7.20
2023-01-29T16:16:52.593Z,8.85
2023-01-29T16:19:25.737Z,8.23
2023-01-29T16:22:01.351Z,6.35
2023-01-29T16:24:32.414Z,7.30
2023-01-29T16:27:03.205Z,6.18
2023-01-29T16:29:34.543Z,8.40
2023-01-29T16:32:06.233Z,7.03
2023-01-29T16:34:39.643Z,10.75
2023-01-29T16:37:19.048Z,10.95
2023-01-29T16:39:50.533Z,9.65
2023-01-29T16:42:28.100Z,9.32
2023-01-29T16:45:02.835Z,9.10
2023-01-29T16:47:36.189Z,11.32
2023-01-29T16:50:27.705Z,8.05
2023-01-29T16:52:58.886Z,8.15
2023-01-29T16:55:33.407Z,8.63
2023-01-29T16:58:06.686Z,6.93
2023-01-29T17:00:36.079Z,8.77
2023-01-29T17:03:08.514Z,7.88
2023-01-29T17:05:39.998Z,7.10
2023-01-29T17:08:15.455Z,7.43
2023-01-29T17:10:49.109Z,7.60
2023-01-29T17:13:25.009Z,9.57
2023-01-29T17:15:55.214Z,10.38
2023-01-29T17:18:27.179Z,11.07
2023-01-29T17:20:58.086Z,10.02
2023-01-29T17:23:27.160Z,9.35
2023-01-29T17:25:56.667Z,11.23
2023-01-29T17:28:26.432Z,13.00
2023-01-29T17:31:05.862Z,9.07
2023-01-29T17:33:36.823Z,11.35
2023-01-29T17:36:11.283Z,10.82
2023-01-29T17:38:40.855Z,8.77
2023-01-29T17:41:17.150Z,10.05
2023-01-29T17:43:46.421Z,8.98
2023-01-29T17:46:18.888Z,10.55
2023-01-29T17:48:49.465Z,8.25
2023-01-29T17:51:20.602Z,8.15
2023-01-29T17:53:49.695Z,8.90
2023-01-29T17:56:22.561Z,8.32
2023-01-29T17:58:51.751Z,7.78
2023-01-29T18:01:21.084Z,6.88
2023-01-29T18:03:50.274Z,7.80
2023-01-29T18:06:27.245Z,6.93
2023-01-29T18:08:56.811Z,6.13
2023-01-29T18:11:27.182Z,8.10
2023-01-29T18:13:56.744Z,6.72
2023-01-29T18:16:27.021Z,7.32
2023-01-29T18:18:56.057Z,7.80
2023-01-29T18:21:26.969Z,7.18
2023-01-29T18:23:56.668Z,7.03
2023-01-29T18:26:25.903Z,8.05
2023-01-29T18:28:54.914Z,7.85
2023-01-29T18:31:24.447Z,11.23
2023-01-29T18:33:53.621Z,10.25
2023-01-29T18:36:23.011Z,8.50
2023-01-29T18:38:53.548Z,9.80
2023-01-29T18:41:23.480Z,9.70
2023-01-29T18:43:52.944Z,12.45
2023-01-29T18:46:24.328Z,11.68
2023-01-29T18:48:53.565Z,11.77
2023-01-29T18:51:23.361Z,11.43
2023-01-29T18:53:54.361Z,9.98
2023-01-29T18:56:23.911Z,11.95
2023-01-29T18:58:56.575Z,11.73
2023-01-29T19:01:27.291Z,14.43
2023-01-29T19:03:59.253Z,14.23
2023-01-29T19:06:28.752Z,12.32
2023-01-29T19:08:59.543Z,13.75
2023-01-29T19:11:28.895Z,13.05
2023-01-29T19:13:57.838Z,12.15
2023-01-29T19:16:28.459Z,14.87
2023-01-29T19:18:59.154Z,11.75
2023-01-29T19:21:30.479Z,11.77
2023-01-29T19:24:00.989Z,12.88
2023-01-29T19:26:34.135Z,13.20
2023-01-29T19:29:03.493Z,12.63
2023-01-29T19:31:33.036Z,12.02
2023-01-29T19:34:02.322Z,14.02
2023-01-29T19:36:31.771Z,11.52
2023-01-29T19:39:02.319Z,12.75
2023-01-29T19:41:31.697Z,11.45
2023-01-29T19:44:00.672Z,12.45
2023-01-29T19:46:30.400Z,11.23
2023-01-29T19:48:59.520Z,10.20
2023-01-29T19:51:29.323Z,9.77
2023-01-29T19:53:58.712Z,10.68
2023-01-29T19:56:29.804Z,11.88
2023-01-29T19:58:58.853Z,11.30
2023-01-29T20:01:29.730Z,14.40
2023-01-29T20:03:59.428Z,12.10
2023-01-29T20:06:32.113Z,11.07
2023-01-29T20:09:03.219Z,11.45
2023-01-29T20:11:38.039Z,13.55
2023-01-29T20:14:08.168Z,12.85
2023-01-29T20:16:38.629Z,9.95
2023-01-29T20:19:13.977Z,12.70
2023-01-29T20:21:49.108Z,12.00
2023-01-29T20:24:18.501Z,11.07
2023-01-29T20:26:49.369Z,8.63
2023-01-29T20:29:18.638Z,11.80
2023-01-29T20:31:48.257Z,13.95
2023-01-29T20:34:17.924Z,10.40
2023-01-29T20:36:47.630Z,10.80
2023-01-29T20:39:17.266Z,10.30
2023-01-29T20:41:48.594Z,10.98
2023-01-29T20:44:18.076Z,11.98
2023-01-29T20:46:47.896Z,11.05
2023-01-29T20:49:17.353Z,10.07
2023-01-29T20:51:47.162Z,8.32
2023-01-29T20:54:16.382Z,8.30
2023-01-29T20:56:47.400Z,9.13
2023-01-29T20:59:18.942Z,9.60
2023-01-29T21:01:48.931Z,10.40
2023-01-29T21:04:18.863Z,9.65
2023-01-29T21:06:48.339Z,11.15
2023-01-29T21:09:17.819Z,10.35
2023-01-29T21:11:48.480Z,11.32
2023-01-29T21:14:18.736Z,10.00
2023-01-29T21:16:48.089Z,12.02
2023-01-29T21:19:17.159Z,10.88
2023-01-29T21:21:46.817Z,12.32
2023-01-29T21:24:18.911Z,12.38
2023-01-29T21:26:48.603Z,12.77
2023-01-29T21:29:19.138Z,12.55
2023-01-29T21:31:48.640Z,12.82
2023-01-29T21:34:17.735Z,11.88
2023-01-29T21:36:47.471Z,12.80
2023-01-29T21:39:20.991Z,14.57
2023-01-29T21:42:09.240Z,15.68
2023-01-29T21:44:39.901Z,15.05
2023-01-29T21:47:13.361Z,13.90
2023-01-29T21:49:43.298Z,11.32
2023-01-29T21:52:14.355Z,15.13
2023-01-29T21:54:48.981Z,15.35
2023-01-29T21:57:18.521Z,15.77
2023-01-29T21:59:52.927Z,15.23
2023-01-29T22:02:26.280Z,16.15
2023-01-29T22:05:05.313Z,16.70
2023-01-29T22:07:45.707Z,17.10
2023-01-29T22:10:15.663Z,16.38
2023-01-29T22:15:16.743Z,16.30
2023-01-29T22:17:46.076Z,14.82
2023-01-29T22:20:16.439Z,15.77
2023-01-29T22:22:46.201Z,16.42
2023-01-29T22:25:19.913Z,16.40
2023-01-29T22:27:49.327Z,16.67
2023-01-29T22:30:20.482Z,18.27
2023-01-29T22:32:50.189Z,17.45
2023-01-29T22:35:19.205Z,17.00
2023-01-29T22:40:18.903Z,15.45
2023-01-29T22:42:48.396Z,18.33
2023-01-29T22:45:18.759Z,16.85
2023-01-29T22:47:48.036Z,18.08
2023-01-29T22:50:17.373Z,14.85
2023-01-29T22:52:54.166Z,16.85
2023-01-29T22:55:23.281Z,18.40
2023-01-29T22:57:53.554Z,15.48
2023-01-29T23:00:24.219Z,18.02
2023-01-29T23:02:53.665Z,17.50
2023-01-29T23:05:22.557Z,15.48
2023-01-29T23:07:51.969Z,17.37
2023-01-29T23:10:20.992Z,17.65
2023-01-29T23:12:50.256Z,16.27
2023-01-29T23:15:19.163Z,16.05
2023-01-29T23:17:49.761Z,15.05
2023-01-29T23:22:50.492Z,21.48
2023-01-29T23:25:19.649Z,17.02
2023-01-29T23:27:48.128Z,15.25
2023-01-29T23:30:17.520Z,13.85
2023-01-29T23:32:49.064Z,15.10
2023-01-29T23:35:18.184Z,17.38
2023-01-29T23:37:47.359Z,19.08
2023-01-29T23:40:17.084Z,16.60
2023-01-29T23:42:48.874Z,15.27
2023-01-29T23:45:17.983Z,17.75
2023-01-29T23:47:48.541Z,18.27
2023-01-29T23:50:18.569Z,17.88
2023-01-29T23:52:48.072Z,17.23
2023-01-29T23:55:17.235Z,16.45
2023-01-29T23:57:46.470Z,18.70
